sensor_id;sensor_type;location;lat;lon;timestamp;pressure;altitude;pressure_sealevel;temperature;humidity
35778;BME280;21899;42.662;23.316;2023-03-15T00:00:46;93432.59;;;5.68;54.84
35778;BME280;21899;42.662;23.316;2023-03-15T00:03:12;93440.94;;;5.66;54.95
35778;BME280;21899;42.662;23.316;2023-03-15T00:05:43;93434.09;;;5.58;55.50
35778;BME280;21899;42.662;23.316;2023-03-15T00:08:09;93438.66;;;5.65;55.88
35778;BME280;21899;42.662;23.316;2023-03-15T00:10:39;93425.41;;;5.68;55.43
35778;BME280;21899;42.662;23.316;2023-03-15T00:13:04;93423.50;;;5.62;55.07
35778;BME280;21899;42.662;23.316;2023-03-15T00:15:30;93435.63;;;5.70;56.00
35778;BME280;21899;42.662;23.316;2023-03-15T00:17:55;93438.31;;;5.73;56.19
35778;BME280;21899;42.662;23.316;2023-03-15T00:20:21;93427.28;;;5.64;56.19
35778;BME280;21899;42.662;23.316;2023-03-15T00:22:46;93435.63;;;5.66;56.16
35778;BME280;21899;42.662;23.316;2023-03-15T00:25:11;93433.75;;;5.67;56.03
35778;BME280;21899;42.662;23.316;2023-03-15T00:27:37;93422.34;;;5.59;56.13
35778;BME280;21899;42.662;23.316;2023-03-15T00:30:03;93421.19;;;5.64;56.66
35778;BME280;21899;42.662;23.316;2023-03-15T00:32:28;93420.47;;;5.63;55.92
35778;BME280;21899;42.662;23.316;2023-03-15T00:34:54;93423.47;;;5.69;55.68
35778;BME280;21899;42.662;23.316;2023-03-15T00:37:20;93420.47;;;5.74;55.61
35778;BME280;21899;42.662;23.316;2023-03-15T00:39:46;93414.03;;;5.75;55.77
35778;BME280;21899;42.662;23.316;2023-03-15T00:42:13;93424.69;;;5.85;55.86
35778;BME280;21899;42.662;23.316;2023-03-15T00:44:42;93411.03;;;5.87;55.80
35778;BME280;21899;42.662;23.316;2023-03-15T00:47:11;93414.81;;;5.82;55.35
35778;BME280;21899;42.662;23.316;2023-03-15T00:49:38;93416.69;;;5.82;55.76
35778;BME280;21899;42.662;23.316;2023-03-15T00:52:04;93390.91;;;5.72;55.76
35778;BME280;21899;42.662;23.316;2023-03-15T00:54:30;93409.47;;;5.79;54.96
35778;BME280;21899;42.662;23.316;2023-03-15T00:56:58;93403.09;;;5.83;55.34
35778;BME280;21899;42.662;23.316;2023-03-15T00:59:24;93395.47;;;5.85;55.61
35778;BME280;21899;42.662;23.316;2023-03-15T01:01:49;93392.06;;;5.95;56.20
35778;BME280;21899;42.662;23.316;2023-03-15T01:04:15;93393.22;;;5.94;56.09
35778;BME280;21899;42.662;23.316;2023-03-15T01:06:40;93389.44;;;6.02;56.41
35778;BME280;21899;42.662;23.316;2023-03-15T01:09:07;93375.78;;;6.07;56.11
35778;BME280;21899;42.662;23.316;2023-03-15T01:11:33;93374.25;;;6.06;56.29
35778;BME280;21899;42.662;23.316;2023-03-15T01:13:59;93376.91;;;6.10;55.78
35778;BME280;21899;42.662;23.316;2023-03-15T01:16:25;93387.16;;;6.18;56.25
35778;BME280;21899;42.662;23.316;2023-03-15T01:18:52;93371.97;;;6.15;55.84
35778;BME280;21899;42.662;23.316;2023-03-15T01:21:18;93383.34;;;6.26;55.55
35778;BME280;21899;42.662;23.316;2023-03-15T01:23:44;93371.22;;;6.22;54.82
35778;BME280;21899;42.662;23.316;2023-03-15T01:26:12;93370.47;;;6.21;54.70
35778;BME280;21899;42.662;23.316;2023-03-15T01:28:38;93362.13;;;6.23;54.42
35778;BME280;21899;42.662;23.316;2023-03-15T01:31:03;93356.81;;;6.23;54.53
35778;BME280;21899;42.662;23.316;2023-03-15T01:33:29;93355.66;;;6.17;54.48
35778;BME280;21899;42.662;23.316;2023-03-15T01:36:05;93368.16;;;6.20;54.69
35778;BME280;21899;42.662;23.316;2023-03-15T01:38:32;93358.31;;;6.20;54.18
35778;BME280;21899;42.662;23.316;2023-03-15T01:40:58;93361.34;;;6.19;54.32
35778;BME280;21899;42.662;23.316;2023-03-15T01:43:28;93359.06;;;6.21;54.70
35778;BME280;21899;42.662;23.316;2023-03-15T01:46:04;93360.59;;;6.22;54.63
35778;BME280;21899;42.662;23.316;2023-03-15T01:48:40;93352.22;;;6.20;54.42
35778;BME280;21899;42.662;23.316;2023-03-15T01:51:33;93346.19;;;6.23;54.76
35778;BME280;21899;42.662;23.316;2023-03-15T01:54:09;93350.72;;;6.19;54.88
35778;BME280;21899;42.662;23.316;2023-03-15T01:56:41;93339.31;;;6.15;54.83
35778;BME280;21899;42.662;23.316;2023-03-15T01:59:12;93340.09;;;6.15;54.64
35778;BME280;21899;42.662;23.316;2023-03-15T02:01:41;93335.53;;;6.09;54.69
35778;BME280;21899;42.662;23.316;2023-03-15T02:04:12;93335.53;;;6.09;54.95
35778;BME280;21899;42.662;23.316;2023-03-15T02:06:40;93333.25;;;6.00;56.03
35778;BME280;21899;42.662;23.316;2023-03-15T02:09:12;93318.88;;;5.94;55.87
35778;BME280;21899;42.662;23.316;2023-03-15T02:11:39;93310.50;;;5.75;56.68
35778;BME280;21899;42.662;23.316;2023-03-15T02:14:05;93318.81;;;5.66;57.09
35778;BME280;21899;42.662;23.316;2023-03-15T02:16:32;93306.69;;;5.62;56.59
35778;BME280;21899;42.662;23.316;2023-03-15T02:18:58;93296.09;;;5.62;56.84
35778;BME280;21899;42.662;23.316;2023-03-15T02:21:46;93301.38;;;5.69;56.87
35778;BME280;21899;42.662;23.316;2023-03-15T02:24:44;93297.22;;;5.68;57.08
35778;BME280;21899;42.662;23.316;2023-03-15T02:27:12;93299.88;;;5.68;57.90
35778;BME280;21899;42.662;23.316;2023-03-15T02:29:38;93288.47;;;5.64;57.57
35778;BME280;21899;42.662;23.316;2023-03-15T02:32:04;93296.84;;;5.73;57.86
35778;BME280;21899;42.662;23.316;2023-03-15T02:34:30;93301.00;;;5.77;57.02
35778;BME280;21899;42.662;23.316;2023-03-15T02:36:56;93295.31;;;5.72;56.97
35778;BME280;21899;42.662;23.316;2023-03-15T02:39:21;93302.16;;;5.76;57.10
